Time;durP1;ratioP1;P1;durP2;ratioP2;P2;SDS_P1;SDS_P2;PMS_P1;PMS_P2;Temp;Humidity;BMP_temperature;BMP_pressure;BME280_temperature;BME280_humidity;BME280_pressure;Samples;Min_cycle;Max_cycle;Signal;HPM_P1;HPM_P2
2021/05/25 00:02:21;;;;;;;;;;;10.30;94.90;;;;;;4942173;28;20005;-68
2021/05/25 00:04:47;;;;;;;;;;;10.30;94.90;;;;;;4929097;28;20174;-67
2021/05/25 00:07:13;;;;;;;;;;;10.20;95.10;;;;;;4933335;28;19981;-68
2021/05/25 00:09:38;;;;;;;;;;;10.20;95.20;;;;;;4931006;28;19950;-68
2021/05/25 00:12:04;;;;;;;;;;;10.10;95.40;;;;;;4926780;28;19921;-67
2021/05/25 00:14:29;;;;;;;;;;;10.10;95.40;;;;;;4937739;28;19983;-67
2021/05/25 00:16:55;;;;;;;;;;;10.10;95.40;;;;;;4928849;28;19922;-68
2021/05/25 00:19:21;;;;;;;;;;;10.10;95.60;;;;;;4932889;28;19961;-67
2021/05/25 00:21:47;;;;;;;;;;;10.10;95.80;;;;;;4939927;28;20411;-68
2021/05/25 00:24:12;;;;;;;;;;;10.10;95.70;;;;;;4922011;28;20030;-68
2021/05/25 00:26:38;;;;;;;;;;;10.10;95.80;;;;;;4940817;28;19979;-68
2021/05/25 00:29:03;;;;;;;;;;;10.10;95.70;;;;;;4926174;28;19922;-69
2021/05/25 00:31:29;;;;;;;;;;;10.10;95.70;;;;;;4937431;28;19913;-67
2021/05/25 00:33:54;;;;;;;;;;;10.10;95.80;;;;;;4928113;28;19915;-68
2021/05/25 00:36:21;;;;;;;;;;;10.10;95.80;;;;;;4928487;28;19915;-69
2021/05/25 00:38:47;;;;;;;;;;;10.10;96.00;;;;;;4923268;28;20277;-67
2021/05/25 00:41:12;;;;;;;;;;;10.10;96.00;;;;;;4931107;28;19923;-68
2021/05/25 00:43:38;;;;;;;;;;;10.10;96.10;;;;;;4932094;28;19915;-68
2021/05/25 00:46:03;;;;;;;;;;;10.10;96.00;;;;;;4926778;28;20252;-67
2021/05/25 00:48:29;;;;;;;;;;;10.20;96.00;;;;;;4933022;28;20011;-68
2021/05/25 00:50:55;;;;;;;;;;;10.20;96.00;;;;;;4927220;28;19919;-67
2021/05/25 00:53:21;;;;;;;;;;;10.10;95.90;;;;;;4940225;28;19918;-68
2021/05/25 00:55:46;;;;;;;;;;;10.10;96.00;;;;;;4923560;28;19915;-68
2021/05/25 00:58:12;;;;;;;;;;;10.10;96.10;;;;;;4927678;28;19918;-68
2021/05/25 01:00:39;;;;;;;;;;;10.10;96.10;;;;;;4923028;28;20348;-67
2021/05/25 01:03:05;;;;;;;;;;;10.20;96.20;;;;;;4919994;28;19926;-68
2021/05/25 01:05:31;;;;;;;;;;;10.10;96.10;;;;;;4922732;28;19977;-68
2021/05/25 01:07:58;;;;;;;;;;;10.10;96.10;;;;;;4922895;28;19958;-68
2021/05/25 01:10:30;;;;;;;;;;;10.10;96.10;;;;;;4924171;29;19919;-67
2021/05/25 01:13:02;;;;;;;;;;;10.00;96.20;;;;;;4907687;28;20158;-69
2021/05/25 01:15:28;;;;;;;;;;;10.10;96.20;;;;;;4923022;28;19938;-67
2021/05/25 01:17:55;;;;;;;;;;;10.00;96.30;;;;;;4922878;28;19974;-67
2021/05/25 01:20:22;;;;;;;;;;;10.00;96.40;;;;;;4921908;28;19964;-67
2021/05/25 01:22:48;;;;;;;;;;;10.00;96.30;;;;;;4920833;28;19915;-68
2021/05/25 01:25:14;;;;;;;;;;;10.00;96.40;;;;;;4919545;28;19926;-67
2021/05/25 01:27:40;;;;;;;;;;;9.90;96.40;;;;;;4922642;29;20064;-67
2021/05/25 01:30:07;;;;;;;;;;;9.90;96.50;;;;;;4914548;29;19915;-68
2021/05/25 01:32:32;;;;;;;;;;;9.90;96.50;;;;;;4920634;28;19911;-69
2021/05/25 01:34:58;;;;;;;;;;;10.00;96.50;;;;;;4919593;28;19929;-69
2021/05/25 01:37:23;;;;;;;;;;;10.00;96.40;;;;;;4923009;28;20252;-67
2021/05/25 01:39:53;;;;;;;;;;;10.10;96.30;;;;;;4916520;28;19954;-69
2021/05/25 01:42:18;;;;;;;;;;;10.10;96.30;;;;;;4924547;29;20403;-68
2021/05/25 01:44:44;;;;;;;;;;;10.10;96.20;;;;;;4921741;28;19937;-67
2021/05/25 01:47:10;;;;;;;;;;;10.20;96.10;;;;;;4923038;28;19923;-69
2021/05/25 01:49:35;;;;;;;;;;;10.20;95.80;;;;;;4912808;29;19915;-69
2021/05/25 01:52:01;;;;;;;;;;;10.20;95.80;;;;;;4922837;29;19922;-69
2021/05/25 01:54:26;;;;;;;;;;;10.30;95.70;;;;;;4919339;28;19918;-67
2021/05/25 01:56:52;;;;;;;;;;;10.30;95.50;;;;;;4912822;28;19919;-68
2021/05/25 01:59:17;;;;;;;;;;;10.30;95.40;;;;;;4921017;28;20296;-67
2021/05/25 02:01:43;;;;;;;;;;;10.30;95.20;;;;;;4930320;28;20005;-68
2021/05/25 02:04:08;;;;;;;;;;;10.30;95.00;;;;;;4924528;28;19931;-69
2021/05/25 02:06:34;;;;;;;;;;;10.30;94.70;;;;;;4929917;28;19926;-69
2021/05/25 02:08:59;;;;;;;;;;;10.30;94.50;;;;;;4925203;29;19930;-68
2021/05/25 02:11:25;;;;;;;;;;;10.40;94.00;;;;;;4929657;28;19966;-69
2021/05/25 02:13:50;;;;;;;;;;;10.30;94.20;;;;;;4927994;28;20021;-68
2021/05/25 02:16:17;;;;;;;;;;;10.30;94.00;;;;;;4929402;28;19922;-67
2021/05/25 02:18:44;;;;;;;;;;;10.30;94.00;;;;;;4927680;29;20001;-69
2021/05/25 02:21:11;;;;;;;;;;;10.30;94.00;;;;;;4925181;28;20363;-68
2021/05/25 02:23:37;;;;;;;;;;;10.30;94.00;;;;;;4927160;29;19915;-67
2021/05/25 02:26:03;;;;;;;;;;;10.20;94.10;;;;;;4929851;29;20554;-68
2021/05/25 02:28:28;;;;;;;;;;;10.20;94.20;;;;;;4929894;28;20334;-68
2021/05/25 02:30:54;;;;;;;;;;;10.20;94.30;;;;;;4927809;28;19941;-69
2021/05/25 02:33:21;;;;;;;;;;;10.10;94.30;;;;;;4927103;28;20397;-69
2021/05/25 02:35:47;;;;;;;;;;;10.10;94.30;;;;;;4928835;28;20006;-67
2021/05/25 02:38:13;;;;;;;;;;;10.10;94.40;;;;;;4928466;29;19927;-67
2021/05/25 02:40:39;;;;;;;;;;;10.00;94.40;;;;;;4927588;28;19929;-69
2021/05/25 02:43:04;;;;;;;;;;;10.00;94.60;;;;;;4927460;29;19915;-67
2021/05/25 02:45:31;;;;;;;;;;;9.90;94.50;;;;;;4925338;28;20244;-68
2021/05/25 02:47:57;;;;;;;;;;;9.90;94.40;;;;;;4918576;29;19919;-68
2021/05/25 02:50:23;;;;;;;;;;;9.90;94.40;;;;;;4928144;29;20005;-67
2021/05/25 02:52:49;;;;;;;;;;;9.80;94.40;;;;;;4929817;28;20043;-68
2021/05/25 02:55:19;;;;;;;;;;;9.80;93.90;;;;;;4925396;28;19977;-67
2021/05/25 02:57:45;;;;;;;;;;;9.70;93.80;;;;;;4927204;28;20351;-67
2021/05/25 03:00:18;;;;;;;;;;;9.60;93.90;;;;;;4927955;28;19930;-68
2021/05/25 03:02:43;;;;;;;;;;;9.60;94.20;;;;;;4929298;28;19911;-69
2021/05/25 03:05:10;;;;;;;;;;;9.60;94.20;;;;;;4927532;29;20283;-68
2021/05/25 03:07:36;;;;;;;;;;;9.60;93.90;;;;;;4915916;28;19915;-69
2021/05/25 03:10:03;;;;;;;;;;;9.60;93.90;;;;;;4922790;28;19915;-69
2021/05/25 03:12:29;;;;;;;;;;;9.60;94.00;;;;;;4924066;29;19939;-67
2021/05/25 03:14:54;;;;;;;;;;;9.60;94.10;;;;;;4924182;28;20064;-68
2021/05/25 03:17:22;;;;;;;;;;;9.60;94.20;;;;;;4924904;28;20022;-68
2021/05/25 03:19:48;;;;;;;;;;;9.60;94.40;;;;;;4923059;28;19926;-68
2021/05/25 03:22:13;;;;;;;;;;;9.60;94.30;;;;;;4925627;28;19914;-67
2021/05/25 03:24:39;;;;;;;;;;;9.70;93.70;;;;;;4924139;29;20017;-68
2021/05/25 03:27:04;;;;;;;;;;;9.70;93.30;;;;;;4923151;28;19955;-68
2021/05/25 03:29:30;;;;;;;;;;;9.70;93.00;;;;;;4922786;28;19919;-67
2021/05/25 03:31:55;;;;;;;;;;;9.70;93.10;;;;;;4919818;28;19989;-68
2021/05/25 03:34:21;;;;;;;;;;;9.70;93.40;;;;;;4919624;28;19950;-68
2021/05/25 03:36:46;;;;;;;;;;;9.70;93.10;;;;;;4923360;28;19978;-68
2021/05/25 03:39:12;;;;;;;;;;;9.70;93.30;;;;;;4918408;28;20418;-67
2021/05/25 03:41:37;;;;;;;;;;;9.70;93.60;;;;;;4925330;28;19919;-68
2021/05/25 03:44:03;;;;;;;;;;;9.70;93.60;;;;;;4921542;29;19941;-70
2021/05/25 03:46:28;;;;;;;;;;;9.60;93.50;;;;;;4925229;29;19914;-68
2021/05/25 03:48:54;;;;;;;;;;;9.50;93.70;;;;;;4920536;28;20245;-68
2021/05/25 03:51:19;;;;;;;;;;;9.50;94.00;;;;;;4922277;29;19915;-68
2021/05/25 03:53:45;;;;;;;;;;;9.40;94.20;;;;;;4920328;28;20465;-68
2021/05/25 03:58:53;;;;;;;;;;;9.40;94.90;;;;;;4915563;28;19915;-68
2021/05/25 04:01:20;;;;;;;;;;;9.40;95.10;;;;;;4925006;28;20338;-68
2021/05/25 04:03:47;;;;;;;;;;;9.30;95.30;;;;;;4915754;28;19926;-68
2021/05/25 04:06:12;;;;;;;;;;;9.30;95.60;;;;;;4908614;29;19959;-67
2021/05/25 04:08:38;;;;;;;;;;;9.30;95.80;;;;;;4917712;28;19921;-68
2021/05/25 04:11:04;;;;;;;;;;;9.30;96.10;;;;;;4924799;29;19915;-68
2021/05/25 04:13:30;;;;;;;;;;;9.10;96.10;;;;;;4918334;28;19969;-69
2021/05/25 04:15:55;;;;;;;;;;;9.10;96.20;;;;;;4925260;28;20336;-68
2021/05/25 04:18:21;;;;;;;;;;;9.20;96.40;;;;;;4920045;28;20343;-70
2021/05/25 04:20:47;;;;;;;;;;;9.20;96.30;;;;;;4919262;28;20519;-69
2021/05/25 04:23:12;;;;;;;;;;;9.10;96.20;;;;;;4919950;28;20394;-68
2021/05/25 04:25:38;;;;;;;;;;;9.10;96.30;;;;;;4921999;28;19915;-68
2021/05/25 04:28:04;;;;;;;;;;;9.10;96.30;;;;;;4921494;28;19922;-68
2021/05/25 04:30:29;;;;;;;;;;;9.10;96.20;;;;;;4909656;28;20246;-68
2021/05/25 04:32:55;;;;;;;;;;;9.10;96.10;;;;;;4922767;28;19997;-69
2021/05/25 04:35:21;;;;;;;;;;;9.10;96.00;;;;;;4923907;28;19976;-68
2021/05/25 04:37:46;;;;;;;;;;;9.20;95.90;;;;;;4919639;28;19923;-69
2021/05/25 04:40:12;;;;;;;;;;;9.10;95.80;;;;;;4922805;28;19931;-69
2021/05/25 04:42:38;;;;;;;;;;;9.20;95.90;;;;;;4918794;28;19923;-70
2021/05/25 04:45:04;;;;;;;;;;;9.20;95.90;;;;;;4922678;29;19926;-68
2021/05/25 04:47:29;;;;;;;;;;;9.20;95.90;;;;;;4914572;28;19926;-68
2021/05/25 04:49:55;;;;;;;;;;;9.20;95.90;;;;;;4915003;28;19982;-71
2021/05/25 04:52:20;;;;;;;;;;;9.20;96.00;;;;;;4912878;29;19919;-69
2021/05/25 04:54:46;;;;;;;;;;;9.20;96.00;;;;;;4922026;29;19919;-68
2021/05/25 04:57:12;;;;;;;;;;;9.30;96.10;;;;;;4922932;28;19915;-68
2021/05/25 04:59:37;;;;;;;;;;;9.30;96.10;;;;;;4921652;28;19921;-68
2021/05/25 05:02:03;;;;;;;;;;;9.40;96.00;;;;;;4921051;28;19993;-68
2021/05/25 05:04:29;;;;;;;;;;;9.50;96.00;;;;;;4910994;29;19969;-68
2021/05/25 05:06:54;;;;;;;;;;;9.60;95.90;;;;;;4922699;29;19915;-69
2021/05/25 05:09:20;;;;;;;;;;;9.60;95.90;;;;;;4913884;28;20017;-70
2021/05/25 05:11:45;;;;;;;;;;;9.60;95.50;;;;;;4912772;28;19918;-68
2021/05/25 05:14:11;;;;;;;;;;;9.70;95.10;;;;;;4918954;29;19933;-68
2021/05/25 05:16:36;;;;;;;;;;;9.80;95.20;;;;;;4924445;29;19918;-68
2021/05/25 05:19:02;;;;;;;;;;;9.80;94.70;;;;;;4922048;28;19935;-69
2021/05/25 05:21:28;;;;;;;;;;;9.90;94.40;;;;;;4923165;28;20670;-68
2021/05/25 05:23:54;;;;;;;;;;;10.00;94.60;;;;;;4918987;28;20327;-69
2021/05/25 05:26:20;;;;;;;;;;;10.00;94.60;;;;;;4924369;28;20272;-68
2021/05/25 05:28:45;;;;;;;;;;;10.00;94.30;;;;;;4921303;29;19945;-68
2021/05/25 05:31:11;;;;;;;;;;;10.00;94.20;;;;;;4924311;28;19911;-67
2021/05/25 05:33:36;;;;;;;;;;;10.00;93.90;;;;;;4921392;29;20312;-68
2021/05/25 05:36:02;;;;;;;;;;;9.90;93.60;;;;;;4930593;28;19921;-68
2021/05/25 05:38:28;;;;;;;;;;;10.00;93.50;;;;;;5018980;28;19933;-69
2021/05/25 05:40:55;;;;;;;;;;;10.00;92.80;;;;;;5023476;28;19928;-68
2021/05/25 05:43:24;;;;;;;;;;;10.00;92.30;;;;;;5018455;28;20421;-68
2021/05/25 05:45:50;;;;;;;;;;;10.00;91.50;;;;;;5023047;28;20317;-68
2021/05/25 05:48:15;;;;;;;;;;;10.10;92.20;;;;;;5020174;28;19999;-68
2021/05/25 05:50:41;;;;;;;;;;;10.20;92.50;;;;;;5023213;28;19921;-69
2021/05/25 05:53:06;;;;;;;;;;;10.00;92.00;;;;;;5021764;28;20378;-69
2021/05/25 05:55:32;;;;;;;;;;;9.90;92.60;;;;;;5023042;28;19921;-70
2021/05/25 05:57:58;;;;;;;;;;;9.80;92.40;;;;;;5016605;28;20027;-68
2021/05/25 06:00:24;;;;;;;;;;;9.80;92.90;;;;;;5022510;28;20602;-68
2021/05/25 06:02:50;;;;;;;;;;;9.80;93.30;;;;;;5021499;28;20046;-69
2021/05/25 06:05:15;;;;;;;;;;;9.70;93.10;;;;;;5023189;28;20294;-68
2021/05/25 06:07:41;;;;;;;;;;;9.80;92.60;;;;;;5018839;28;19968;-68
2021/05/25 06:10:07;;;;;;;;;;;9.80;93.00;;;;;;5020785;28;19955;-68
2021/05/25 06:12:33;;;;;;;;;;;10.00;93.10;;;;;;5020605;28;20342;-68
2021/05/25 06:14:59;;;;;;;;;;;10.10;92.70;;;;;;5022546;28;19930;-68
2021/05/25 06:17:24;;;;;;;;;;;10.10;92.40;;;;;;5020643;28;19936;-68
2021/05/25 06:19:50;;;;;;;;;;;10.20;92.00;;;;;;5019928;28;19936;-69
2021/05/25 06:22:15;;;;;;;;;;;10.30;91.80;;;;;;5020141;28;19928;-68
2021/05/25 06:24:41;;;;;;;;;;;10.30;91.00;;;;;;5016533;28;20063;-68
2021/05/25 06:27:06;;;;;;;;;;;10.20;90.70;;;;;;5020275;28;19917;-68
2021/05/25 06:29:32;;;;;;;;;;;10.10;91.50;;;;;;5014479;28;20565;-68
2021/05/25 06:32:01;;;;;;;;;;;10.20;91.70;;;;;;5021016;28;19943;-68
2021/05/25 06:34:27;;;;;;;;;;;10.20;90.70;;;;;;5021502;28;19963;-68
2021/05/25 06:36:53;;;;;;;;;;;10.30;90.40;;;;;;5020198;28;20354;-68
2021/05/25 06:39:18;;;;;;;;;;;10.30;90.00;;;;;;5018779;28;20014;-68
2021/05/25 06:41:44;;;;;;;;;;;10.30;89.00;;;;;;5022411;28;20475;-68
2021/05/25 06:44:09;;;;;;;;;;;10.20;89.80;;;;;;5021186;28;19925;-67
2021/05/25 06:46:34;;;;;;;;;;;10.30;89.60;;;;;;5014800;28;19948;-69
2021/05/25 06:49:00;;;;;;;;;;;10.30;88.40;;;;;;5014711;28;20052;-68
2021/05/25 06:51:26;;;;;;;;;;;10.60;88.80;;;;;;5020081;28;19940;-68
2021/05/25 06:53:52;;;;;;;;;;;10.90;86.80;;;;;;5023575;28;19913;-68
2021/05/25 06:56:18;;;;;;;;;;;10.90;86.90;;;;;;5023246;28;20074;-69
2021/05/25 06:58:43;;;;;;;;;;;11.30;87.60;;;;;;5023498;28;20321;-68
2021/05/25 07:01:09;;;;;;;;;;;11.10;86.00;;;;;;5023723;28;20017;-69
2021/05/25 07:03:34;;;;;;;;;;;10.70;87.10;;;;;;5022241;28;20210;-68
2021/05/25 07:06:00;;;;;;;;;;;10.60;86.70;;;;;;5025709;28;19975;-68
2021/05/25 07:08:25;;;;;;;;;;;10.70;87.60;;;;;;5024947;28;19920;-68
2021/05/25 07:10:51;;;;;;;;;;;10.70;87.10;;;;;;5025623;28;20272;-68
2021/05/25 07:13:16;;;;;;;;;;;10.50;87.70;;;;;;5022772;28;19914;-68
2021/05/25 07:15:42;;;;;;;;;;;10.40;87.60;;;;;;5026199;28;20198;-68
2021/05/25 07:18:07;;;;;;;;;;;10.30;87.60;;;;;;5022774;28;19933;-68
2021/05/25 07:20:33;;;;;;;;;;;10.20;88.30;;;;;;5026173;28;20326;-69
2021/05/25 07:22:58;;;;;;;;;;;10.10;88.10;;;;;;5022503;28;20064;-68
2021/05/25 07:25:25;;;;;;;;;;;10.00;88.00;;;;;;5026587;28;20369;-68
2021/05/25 07:27:51;;;;;;;;;;;9.90;88.30;;;;;;5023566;28;20027;-68
2021/05/25 07:30:17;;;;;;;;;;;9.90;88.70;;;;;;5024988;28;20018;-68
2021/05/25 07:32:42;;;;;;;;;;;9.90;89.00;;;;;;5023493;28;20013;-68
2021/05/25 07:35:09;;;;;;;;;;;9.90;89.50;;;;;;5021716;28;19953;-68
2021/05/25 07:37:34;;;;;;;;;;;9.90;89.60;;;;;;5017668;28;19918;-69
2021/05/25 07:40:00;;;;;;;;;;;9.90;89.70;;;;;;5024918;28;19917;-68
2021/05/25 07:42:26;;;;;;;;;;;9.80;89.90;;;;;;5025286;28;20028;-68
2021/05/25 07:44:52;;;;;;;;;;;9.70;88.50;;;;;;5024531;28;19956;-68
2021/05/25 07:47:17;;;;;;;;;;;9.50;88.40;;;;;;5024378;28;20004;-67
2021/05/25 07:49:43;;;;;;;;;;;9.30;89.10;;;;;;5022471;28;19967;-68
2021/05/25 07:52:08;;;;;;;;;;;9.30;89.50;;;;;;5023259;28;20069;-68
2021/05/25 07:54:34;;;;;;;;;;;9.10;88.70;;;;;;5019604;28;20388;-69
2021/05/25 07:56:59;;;;;;;;;;;9.20;89.10;;;;;;5019228;28;19936;-68
2021/05/25 07:59:24;;;;;;;;;;;9.30;89.50;;;;;;5020767;28;20007;-67
2021/05/25 08:01:51;;;;;;;;;;;9.50;89.40;;;;;;5021547;28;19965;-67
2021/05/25 08:04:17;;;;;;;;;;;9.60;88.50;;;;;;5020021;28;19917;-68
2021/05/25 08:06:42;;;;;;;;;;;9.60;89.20;;;;;;5020247;28;20404;-67
2021/05/25 08:09:08;;;;;;;;;;;9.60;89.60;;;;;;5022421;28;19917;-68
2021/05/25 08:11:34;;;;;;;;;;;9.60;89.60;;;;;;5023501;28;20062;-68
2021/05/25 08:13:59;;;;;;;;;;;9.90;89.80;;;;;;5022744;28;20028;-67
2021/05/25 08:16:29;;;;;;;;;;;9.90;89.30;;;;;;5021777;28;19932;-68
2021/05/25 08:19:15;;;;;;;;;;;10.10;89.20;;;;;;5018684;28;19957;-68
2021/05/25 08:21:41;;;;;;;;;;;10.30;88.70;;;;;;5021590;28;19943;-68
2021/05/25 08:24:07;;;;;;;;;;;10.40;88.00;;;;;;5020605;28;19917;-68
2021/05/25 08:26:34;;;;;;;;;;;10.60;88.30;;;;;;5019312;28;20248;-68
2021/05/25 08:28:59;;;;;;;;;;;10.80;86.50;;;;;;5019825;28;19917;-68
2021/05/25 08:31:25;;;;;;;;;;;11.10;85.80;;;;;;5023521;28;19917;-67
2021/05/25 08:33:51;;;;;;;;;;;11.10;84.50;;;;;;5017781;28;19944;-68
2021/05/25 08:36:17;;;;;;;;;;;11.00;85.50;;;;;;5024818;28;20305;-67
2021/05/25 08:38:43;;;;;;;;;;;11.10;86.30;;;;;;5022132;28;20357;-68
2021/05/25 08:41:09;;;;;;;;;;;10.90;85.20;;;;;;5023869;28;19921;-68
2021/05/25 08:43:35;;;;;;;;;;;11.00;87.00;;;;;;5022028;28;19912;-67
2021/05/25 08:46:01;;;;;;;;;;;11.20;86.40;;;;;;5023351;28;19992;-67
2021/05/25 08:48:26;;;;;;;;;;;11.40;85.30;;;;;;5022002;28;19947;-67
2021/05/25 08:51:00;;;;;;;;;;;11.50;81.80;;;;;;5023846;28;20019;-68
2021/05/25 08:53:26;;;;;;;;;;;11.50;80.10;;;;;;5021922;28;20219;-68
2021/05/25 08:55:52;;;;;;;;;;;11.60;80.30;;;;;;5020040;28;19921;-68
2021/05/25 08:58:19;;;;;;;;;;;11.50;80.10;;;;;;5023204;28;20253;-67
2021/05/25 09:00:44;;;;;;;;;;;11.30;80.10;;;;;;5020228;28;19920;-67
2021/05/25 09:03:10;;;;;;;;;;;11.10;82.80;;;;;;5022456;28;19916;-68
2021/05/25 09:05:37;;;;;;;;;;;11.20;84.40;;;;;;5024619;28;19963;-68
2021/05/25 09:08:04;;;;;;;;;;;11.20;84.10;;;;;;5019761;28;19948;-67
2021/05/25 09:10:32;;;;;;;;;;;11.70;82.80;;;;;;5023973;28;19959;-67
2021/05/25 09:12:57;;;;;;;;;;;12.60;80.90;;;;;;5021855;28;20348;-68
2021/05/25 09:15:42;;;;;;;;;;;12.40;80.70;;;;;;5021402;28;19928;-68
2021/05/25 09:18:09;;;;;;;;;;;12.20;80.60;;;;;;5023299;28;19925;-68
2021/05/25 09:20:52;;;;;;;;;;;11.90;81.00;;;;;;5019807;28;19960;-68
2021/05/25 09:23:21;;;;;;;;;;;12.00;80.70;;;;;;5020723;28;19913;-68
2021/05/25 09:25:57;;;;;;;;;;;12.60;78.50;;;;;;5007065;28;19928;-70
2021/05/25 09:28:23;;;;;;;;;;;13.10;73.60;;;;;;5011748;28;20267;-68
2021/05/25 09:30:49;;;;;;;;;;;13.30;71.10;;;;;;5015745;28;20175;-68
2021/05/25 09:33:15;;;;;;;;;;;14.00;72.40;;;;;;5023267;28;19920;-68
2021/05/25 09:35:42;;;;;;;;;;;14.20;68.40;;;;;;5022104;28;19931;-68
2021/05/25 09:38:18;;;;;;;;;;;14.00;67.20;;;;;;5022446;28;20021;-69
2021/05/25 09:40:44;;;;;;;;;;;13.80;67.80;;;;;;5016341;28;20397;-68
2021/05/25 09:43:13;;;;;;;;;;;13.60;66.10;;;;;;5018130;28;19924;-68
2021/05/25 09:45:57;;;;;;;;;;;14.30;64.60;;;;;;5021699;28;19913;-68
2021/05/25 09:48:24;;;;;;;;;;;14.60;63.40;;;;;;5022430;28;19935;-68
2021/05/25 09:50:50;;;;;;;;;;;14.90;63.50;;;;;;5018631;28;19913;-68
2021/05/25 09:53:22;;;;;;;;;;;15.40;63.70;;;;;;5016051;28;19913;-68
2021/05/25 09:55:48;;;;;;;;;;;14.50;64.10;;;;;;5019876;28;19913;-68
2021/05/25 09:58:14;;;;;;;;;;;13.50;68.30;;;;;;5019915;28;20000;-67
2021/05/25 10:00:43;;;;;;;;;;;12.50;72.20;;;;;;5020406;28;19925;-67
2021/05/25 10:03:16;;;;;;;;;;;12.10;76.00;;;;;;5017084;28;19944;-67
2021/05/25 10:05:44;;;;;;;;;;;12.00;78.30;;;;;;5023762;28;19987;-67
2021/05/25 10:08:10;;;;;;;;;;;12.60;77.70;;;;;;5019104;28;19920;-68
2021/05/25 10:10:36;;;;;;;;;;;13.30;75.70;;;;;;5012558;28;20025;-69
2021/05/25 10:13:02;;;;;;;;;;;13.20;72.40;;;;;;5013983;28;20471;-68
2021/05/25 10:15:28;;;;;;;;;;;14.00;71.50;;;;;;5017991;28;20133;-68
2021/05/25 10:20:30;;;;;;;;;;;14.70;69.40;;;;;;5021142;28;19989;-68
2021/05/25 10:22:56;;;;;;;;;;;14.80;65.80;;;;;;5022616;28;20440;-69
2021/05/25 10:25:22;;;;;;;;;;;14.70;66.20;;;;;;5023299;28;19925;-68
2021/05/25 10:27:48;;;;;;;;;;;14.30;65.90;;;;;;5021819;28;20237;-68
2021/05/25 10:30:22;;;;;;;;;;;13.50;69.00;;;;;;5022206;28;19920;-67
2021/05/25 10:33:08;;;;;;;;;;;13.30;70.10;;;;;;5018690;28;19917;-67
2021/05/25 10:35:50;;;;;;;;;;;13.50;70.20;;;;;;5024200;28;19944;-68
2021/05/25 10:38:16;;;;;;;;;;;13.00;69.30;;;;;;5024687;28;19917;-68
2021/05/25 10:40:45;;;;;;;;;;;13.20;69.90;;;;;;5023614;28;19924;-68
2021/05/25 10:43:29;;;;;;;;;;;13.40;70.10;;;;;;5023845;28;19971;-69
2021/05/25 10:46:12;;;;;;;;;;;13.30;68.60;;;;;;5023475;28;20310;-68
2021/05/25 10:48:59;;;;;;;;;;;13.30;68.20;;;;;;5022973;28;20007;-67
2021/05/25 10:51:45;;;;;;;;;;;13.10;68.90;;;;;;5023334;28;20045;-68
2021/05/25 10:54:36;;;;;;;;;;;13.20;69.40;;;;;;5024013;28;20011;-68
2021/05/25 10:57:04;;;;;;;;;;;13.50;70.10;;;;;;5018503;28;19940;-68
2021/05/25 10:59:48;;;;;;;;;;;13.30;68.50;;;;;;5023483;28;19948;-69
2021/05/25 11:02:13;;;;;;;;;;;13.20;68.80;;;;;;5022053;28;20417;-68
2021/05/25 11:04:39;;;;;;;;;;;13.20;67.20;;;;;;5024033;28;19997;-68
2021/05/25 11:07:23;;;;;;;;;;;13.40;68.40;;;;;;5020412;28;19965;-68
2021/05/25 11:09:48;;;;;;;;;;;13.30;68.30;;;;;;5020412;28;20273;-67
2021/05/25 11:12:15;;;;;;;;;;;13.20;69.30;;;;;;5022901;28;20211;-68
2021/05/25 11:14:59;;;;;;;;;;;12.90;68.50;;;;;;5023097;28;19917;-68
2021/05/25 11:17:28;;;;;;;;;;;13.00;67.30;;;;;;5024804;28;19974;-69
2021/05/25 11:20:09;;;;;;;;;;;13.10;70.00;;;;;;5020397;28;20336;-67
2021/05/25 11:22:36;;;;;;;;;;;12.50;70.80;;;;;;5020097;28;20348;-68
2021/05/25 11:25:03;;;;;;;;;;;12.00;73.50;;;;;;5023932;28;19913;-68
2021/05/25 11:27:47;;;;;;;;;;;11.90;76.00;;;;;;5018802;28;20046;-68
2021/05/25 11:30:22;;;;;;;;;;;12.10;74.70;;;;;;5022307;28;19984;-68
2021/05/25 11:32:48;;;;;;;;;;;12.40;76.00;;;;;;5019921;28;19931;-68
2021/05/25 11:35:17;;;;;;;;;;;12.20;77.80;;;;;;5021344;28;19927;-68
2021/05/25 11:37:44;;;;;;;;;;;11.90;75.70;;;;;;5020994;28;19965;-68
2021/05/25 11:40:20;;;;;;;;;;;11.70;76.70;;;;;;5029349;28;20140;-67
2021/05/25 11:42:46;;;;;;;;;;;11.40;73.30;;;;;;5021211;28;19913;-68
2021/05/25 11:45:12;;;;;;;;;;;11.40;75.30;;;;;;5022453;28;19956;-68
2021/05/25 11:47:40;;;;;;;;;;;11.30;75.60;;;;;;5020339;28;19968;-68
2021/05/25 11:50:05;;;;;;;;;;;11.50;75.80;;;;;;5021978;28;19917;-67
2021/05/25 11:52:32;;;;;;;;;;;11.40;74.00;;;;;;5021965;28;19917;-67
2021/05/25 11:55:00;;;;;;;;;;;11.60;73.10;;;;;;5023524;28;19982;-68
2021/05/25 11:57:26;;;;;;;;;;;11.90;73.70;;;;;;5020989;28;20144;-67
2021/05/25 11:59:52;;;;;;;;;;;12.10;73.40;;;;;;5021137;28;20461;-67
2021/05/25 12:02:28;;;;;;;;;;;12.10;70.30;;;;;;5004712;28;19921;-68
2021/05/25 12:05:05;;;;;;;;;;;12.80;71.60;;;;;;5017922;28;19992;-68
2021/05/25 12:07:31;;;;;;;;;;;14.10;65.20;;;;;;5020947;28;20462;-68
2021/05/25 12:09:59;;;;;;;;;;;14.80;62.30;;;;;;5022094;28;19944;-69
2021/05/25 12:12:27;;;;;;;;;;;15.00;61.70;;;;;;5017368;28;20560;-68
2021/05/25 12:14:52;;;;;;;;;;;15.30;61.20;;;;;;5021484;28;20062;-68
2021/05/25 12:17:22;;;;;;;;;;;15.70;59.30;;;;;;5020999;28;19921;-69
2021/05/25 12:19:51;;;;;;;;;;;15.50;63.50;;;;;;5018002;28;19925;-68
2021/05/25 12:22:16;;;;;;;;;;;15.30;62.10;;;;;;5018277;28;19975;-68
2021/05/25 12:24:42;;;;;;;;;;;15.90;60.30;;;;;;5021189;28;19952;-70
2021/05/25 12:27:08;;;;;;;;;;;16.20;57.50;;;;;;5021403;28;19993;-68
2021/05/25 12:29:34;;;;;;;;;;;16.40;54.40;;;;;;5019893;28;19979;-68
2021/05/25 12:31:59;;;;;;;;;;;16.30;55.40;;;;;;5021405;28;20271;-68
2021/05/25 12:34:25;;;;;;;;;;;17.50;56.20;;;;;;5020310;28;20317;-70
2021/05/25 12:36:51;;;;;;;;;;;18.00;51.80;;;;;;5017321;28;20081;-69
2021/05/25 12:39:24;;;;;;;;;;;17.10;54.20;;;;;;5018168;28;19927;-69
2021/05/25 12:41:50;;;;;;;;;;;15.60;59.20;;;;;;5016804;28;20482;-69
2021/05/25 12:44:18;;;;;;;;;;;13.80;64.90;;;;;;5019561;28;19913;-68
2021/05/25 12:46:50;;;;;;;;;;;12.90;75.00;;;;;;5022714;28;19935;-68
2021/05/25 12:49:31;;;;;;;;;;;12.30;74.70;;;;;;5018848;28;20243;-68
2021/05/25 12:52:16;;;;;;;;;;;11.90;76.80;;;;;;5021484;28;19956;-69
2021/05/25 12:54:55;;;;;;;;;;;11.90;79.50;;;;;;5019129;28;20380;-66
2021/05/25 12:57:22;;;;;;;;;;;12.00;79.20;;;;;;5018427;28;19967;-69
2021/05/25 12:59:57;;;;;;;;;;;12.40;82.00;;;;;;5020465;28;20373;-68
2021/05/25 13:02:41;;;;;;;;;;;12.60;83.60;;;;;;5019061;28;20533;-68
2021/05/25 13:05:08;;;;;;;;;;;12.90;80.40;;;;;;5019482;28;19989;-68
2021/05/25 13:07:50;;;;;;;;;;;13.20;79.70;;;;;;5019087;28;20181;-68
2021/05/25 13:10:26;;;;;;;;;;;13.30;79.20;;;;;;5017389;28;19931;-68
2021/05/25 13:12:53;;;;;;;;;;;13.30;75.20;;;;;;5018523;28;19993;-67
2021/05/25 13:15:19;;;;;;;;;;;13.30;77.70;;;;;;5021616;28;20333;-69
2021/05/25 13:17:53;;;;;;;;;;;13.30;74.60;;;;;;5017020;28;19925;-68
2021/05/25 13:20:20;;;;;;;;;;;13.40;76.40;;;;;;5019697;28;19979;-67
2021/05/25 13:22:45;;;;;;;;;;;14.10;71.50;;;;;;5017163;28;19917;-69
2021/05/25 13:25:12;;;;;;;;;;;14.80;69.80;;;;;;5020423;28;19921;-68
2021/05/25 13:27:38;;;;;;;;;;;15.50;65.20;;;;;;5020260;28;19932;-69
2021/05/25 13:30:06;;;;;;;;;;;15.80;64.90;;;;;;5020477;28;20366;-67
2021/05/25 13:32:32;;;;;;;;;;;15.50;65.30;;;;;;5019335;28;19985;-68
2021/05/25 13:34:58;;;;;;;;;;;15.30;68.30;;;;;;5018441;28;20379;-67
2021/05/25 13:37:24;;;;;;;;;;;14.90;64.90;;;;;;5013552;28;20445;-68
2021/05/25 13:39:51;;;;;;;;;;;14.80;65.40;;;;;;5016710;28;19931;-68
2021/05/25 13:42:16;;;;;;;;;;;14.40;61.90;;;;;;5019305;28;19913;-67
2021/05/25 13:44:42;;;;;;;;;;;14.20;63.80;;;;;;5016950;28;19921;-66
2021/05/25 13:47:08;;;;;;;;;;;14.10;64.80;;;;;;5020203;28;19971;-68
2021/05/25 13:49:33;;;;;;;;;;;14.00;66.70;;;;;;5017348;28;20004;-69
2021/05/25 13:51:59;;;;;;;;;;;13.30;67.30;;;;;;5019651;28;19925;-69
2021/05/25 13:54:25;;;;;;;;;;;13.00;69.10;;;;;;5019887;28;20305;-68
2021/05/25 13:56:55;;;;;;;;;;;13.00;70.20;;;;;;5020425;28;19917;-68
2021/05/25 13:59:30;;;;;;;;;;;12.60;67.90;;;;;;5020460;28;20017;-67
2021/05/25 14:01:55;;;;;;;;;;;12.50;68.60;;;;;;5018299;28;20317;-68
2021/05/25 14:04:21;;;;;;;;;;;12.40;71.00;;;;;;5020955;28;19974;-71
2021/05/25 14:06:47;;;;;;;;;;;12.00;69.10;;;;;;5020722;28;19940;-68
2021/05/25 14:09:12;;;;;;;;;;;11.90;70.30;;;;;;5020145;28;19917;-67
2021/05/25 14:11:38;;;;;;;;;;;11.60;71.60;;;;;;5023381;28;19921;-68
2021/05/25 14:14:04;;;;;;;;;;;11.30;78.00;;;;;;5018276;28;20265;-68
2021/05/25 14:16:30;;;;;;;;;;;10.90;81.30;;;;;;5018326;28;20669;-68
2021/05/25 14:18:56;;;;;;;;;;;10.90;81.20;;;;;;5019728;28;19933;-68
2021/05/25 14:21:22;;;;;;;;;;;11.10;81.10;;;;;;5018868;28;20421;-66
2021/05/25 14:23:48;;;;;;;;;;;11.60;81.20;;;;;;5019517;28;20247;-68
2021/05/25 14:26:14;;;;;;;;;;;12.20;79.80;;;;;;5022143;28;19909;-67
2021/05/25 14:28:40;;;;;;;;;;;13.00;81.60;;;;;;5019038;28;19924;-67